Etusivu
METAR-TAF:

METAR-TAF

Lentoasemat :

Castres, Ranska

Leveyspiiri: 43-33-25N, Pituuspiiri: 2-17-21E, korkeus merenpinnasta: 239 m

Tämänhetkinen sää

Tämä raportti tehtiin 18 minuuttia sitten, kello 21.30 UTC
Tuuli 5 kn lännestä
Lämpötila 21°C
Kosteus 64%
Ilmanpaine 1019 hPa
Näkyvyys 10 km tai enemmän
ei pilviä alle 1500 m:ssä eikä cumulonimbus-pilviä

METAR: LFCK 222130Z AUTO 28005KT CAVOK 21/14 Q1019

Aika: 23:48 (21:48 UTC)

Sääennuste

Tämä raportti tehtiin 4 tuntia ja 48 minuuttia sitten, kello 17.00 UTC
Ennuste voimassa 22. päivästä klo 18 UTC - 23. päivään klo 03 UTC
Tuuli 10 kn lännestä
Näkyvyys 10 km tai enemmän
ei pilviä alle 1500 m:ssä eikä cumulonimbus-pilviä

TAF: LFCK 221700Z 2218/2303 28010KT CAVOK

Säähavainnot ja -ennusteet yli 4000 lentoasemalta (METAR- ja TAF-raportit).

Käytössä olevat sääasemat on merkitty karttaan keltaisilla ja punaisilla pisteillä.

Aseta hiiri pisteen päälle nähdäksesi sääaseman nimen.

Klikkaa sitten nähdäksesi säähavainnot ja -ennusteet.

Kartan vaihtaminen: klikkaa mustalla rastilla varustettuja vihreitä pisteitä, niin voit zoomata sisään; viivalla varustettua vihreää pistettä, niin voit zoomata ulos tai vihreitä nuolia, niin pääset viereisille kartoille.


METAR-TAF: